createdAt,value
2022-10-23T00:00:15.934Z,1019.56
2022-10-23T00:02:15.931Z,1019.57
2022-10-23T00:04:15.896Z,1019.57
2022-10-23T00:06:15.869Z,1019.51
2022-10-23T00:08:15.902Z,1019.53
2022-10-23T00:10:16.037Z,1019.53
2022-10-23T00:12:16.046Z,1019.51
2022-10-23T00:14:15.928Z,1019.49
2022-10-23T00:16:15.893Z,1019.51
2022-10-23T00:18:15.972Z,1019.51
2022-10-23T00:20:15.884Z,1019.49
2022-10-23T00:22:16.003Z,1019.46
2022-10-23T00:24:15.881Z,1019.41
2022-10-23T00:26:16.043Z,1019.40
2022-10-23T00:28:15.925Z,1019.40
2022-10-23T00:30:15.964Z,1019.35
2022-10-23T00:32:15.905Z,1019.36
2022-10-23T00:34:15.938Z,1019.32
2022-10-23T00:36:15.952Z,1019.32
2022-10-23T00:38:16.139Z,1019.32
2022-10-23T00:40:15.956Z,1019.18
2022-10-23T00:42:15.921Z,1019.15
2022-10-23T00:44:15.902Z,1019.15
2022-10-23T00:46:45.954Z,1019.15
2022-10-23T00:48:45.938Z,1019.08
2022-10-23T00:50:45.950Z,1019.02
2022-10-23T00:52:45.973Z,1018.99
2022-10-23T00:54:46.016Z,1018.97
2022-10-23T00:56:45.938Z,1018.97
2022-10-23T00:58:46.029Z,1019.01
2022-10-23T01:00:45.932Z,1018.98
2022-10-23T01:02:46.313Z,1018.98
2022-10-23T01:04:45.969Z,1019.02
2022-10-23T01:06:45.922Z,1019.02
2022-10-23T01:08:45.940Z,1018.95
2022-10-23T01:10:45.929Z,1018.87
2022-10-23T01:12:46.066Z,1018.81
2022-10-23T01:14:45.922Z,1018.91
2022-10-23T01:16:45.934Z,1018.91
2022-10-23T01:18:46.043Z,1018.90
2022-10-23T01:20:45.962Z,1018.93
2022-10-23T01:22:45.934Z,1018.92
2022-10-23T01:24:45.936Z,1018.92
2022-10-23T01:26:45.941Z,1018.92
2022-10-23T01:28:45.949Z,1018.85
2022-10-23T01:30:46.100Z,1018.78
2022-10-23T01:32:45.983Z,1018.83
2022-10-23T01:34:46.044Z,1018.83
2022-10-23T01:36:45.970Z,1018.80
2022-10-23T01:38:45.997Z,1018.83
2022-10-23T01:40:45.974Z,1018.84
2022-10-23T01:42:45.928Z,1018.84
2022-10-23T01:44:45.961Z,1018.84
2022-10-23T01:46:45.983Z,1018.86
2022-10-23T01:48:46.009Z,1018.82
2022-10-23T01:50:46.003Z,1018.74
2022-10-23T01:52:45.997Z,1018.74
2022-10-23T01:54:45.981Z,1018.70
2022-10-23T01:56:45.988Z,1018.62
2022-10-23T01:58:45.994Z,1018.52
2022-10-23T02:00:45.987Z,1018.49
2022-10-23T02:02:45.970Z,1018.49
2022-10-23T02:04:45.973Z,1018.45
2022-10-23T02:06:46.028Z,1018.45
2022-10-23T02:08:45.982Z,1018.36
2022-10-23T02:10:45.959Z,1018.36
2022-10-23T02:12:45.995Z,1018.36
2022-10-23T02:14:45.966Z,1018.39
2022-10-23T02:16:45.984Z,1018.35
2022-10-23T02:18:46.009Z,1018.30
2022-10-23T02:20:45.973Z,1018.30
2022-10-23T02:22:45.964Z,1018.28
2022-10-23T02:24:46.012Z,1018.30
2022-10-23T02:26:45.974Z,1018.33
2022-10-23T02:28:45.979Z,1018.34
2022-10-23T02:30:46.029Z,1018.34
2022-10-23T02:32:46.006Z,1018.32
2022-10-23T02:34:45.969Z,1018.34
2022-10-23T02:36:45.978Z,1018.36
2022-10-23T02:38:46.025Z,1018.35
2022-10-23T02:40:46.026Z,1018.35
2022-10-23T02:43:16.019Z,1018.29
2022-10-23T02:45:16.118Z,1018.29
2022-10-23T02:47:15.986Z,1018.29
2022-10-23T02:49:16.054Z,1018.24
2022-10-23T02:51:16.038Z,1018.24
2022-10-23T02:53:16.003Z,1018.24
2022-10-23T02:55:15.984Z,1018.14
2022-10-23T02:57:15.985Z,1018.09
2022-10-23T02:59:16.018Z,1018.07
2022-10-23T03:01:16.113Z,1018.02
2022-10-23T03:03:16.014Z,1018.02
2022-10-23T03:05:16.024Z,1017.96
2022-10-23T03:07:16.088Z,1017.96
2022-10-23T03:09:16.024Z,1018.04
2022-10-23T03:11:16.033Z,1018.01
2022-10-23T03:13:16.126Z,1018.01
2022-10-23T03:15:16.057Z,1018.01
2022-10-23T03:17:16.014Z,1017.98
2022-10-23T03:19:16.069Z,1017.95
2022-10-23T03:21:16.070Z,1017.95
2022-10-23T03:23:16.010Z,1017.91
2022-10-23T03:25:16.016Z,1017.87
2022-10-23T03:27:16.112Z,1017.87
2022-10-23T03:29:16.028Z,1017.92
2022-10-23T03:31:16.120Z,1017.92
2022-10-23T03:33:16.039Z,1017.92
2022-10-23T03:35:16.022Z,1017.92
2022-10-23T03:37:16.054Z,1017.89
2022-10-23T03:39:16.071Z,1017.86
2022-10-23T03:41:16.018Z,1017.86
2022-10-23T03:43:16.038Z,1017.86
2022-10-23T03:45:16.012Z,1017.81
2022-10-23T03:47:16.016Z,1017.89
2022-10-23T03:49:16.039Z,1017.89
2022-10-23T03:51:16.089Z,1017.87
2022-10-23T03:53:16.034Z,1017.85
2022-10-23T03:55:16.047Z,1017.84
2022-10-23T03:57:16.128Z,1017.84
2022-10-23T03:59:16.038Z,1017.84
2022-10-23T04:01:16.089Z,1017.86
2022-10-23T04:03:16.030Z,1017.84
2022-10-23T04:05:16.090Z,1017.83
2022-10-23T04:07:16.078Z,1017.83
2022-10-23T04:09:16.063Z,1017.83
2022-10-23T04:11:16.092Z,1017.82
2022-10-23T04:13:16.025Z,1017.83
2022-10-23T04:15:16.094Z,1017.81
2022-10-23T04:17:16.204Z,1017.82
2022-10-23T04:19:16.165Z,1017.82
2022-10-23T04:21:16.079Z,1017.84
2022-10-23T04:23:16.084Z,1017.78
2022-10-23T04:25:16.135Z,1017.78
2022-10-23T04:27:16.050Z,1017.78
2022-10-23T04:29:16.063Z,1017.79
2022-10-23T04:31:16.099Z,1017.77
2022-10-23T04:33:16.065Z,1017.78
2022-10-23T04:35:16.118Z,1017.79
2022-10-23T04:37:16.078Z,1017.79
2022-10-23T04:39:16.061Z,1017.80
2022-10-23T04:41:46.096Z,1017.81
2022-10-23T04:43:46.165Z,1017.79
2022-10-23T04:45:46.104Z,1017.80
2022-10-23T04:47:46.115Z,1017.80
2022-10-23T04:49:46.092Z,1017.80
2022-10-23T04:51:46.096Z,1017.75
2022-10-23T04:53:46.064Z,1017.77
2022-10-23T04:55:46.070Z,1017.77
2022-10-23T04:57:46.061Z,1017.76
2022-10-23T04:59:46.073Z,1017.68
2022-10-23T05:01:46.131Z,1017.72
2022-10-23T05:03:46.078Z,1017.70
2022-10-23T05:05:46.093Z,1017.70
2022-10-23T05:07:46.239Z,1017.62
2022-10-23T05:09:46.118Z,1017.61
2022-10-23T05:11:46.095Z,1017.60
2022-10-23T05:13:46.094Z,1017.59
2022-10-23T05:15:46.087Z,1017.59
2022-10-23T05:17:46.185Z,1017.63
2022-10-23T05:19:46.113Z,1017.65
2022-10-23T05:21:46.118Z,1017.63
2022-10-23T05:23:46.271Z,1017.63
2022-10-23T05:25:46.117Z,1017.67
2022-10-23T05:27:46.223Z,1017.69
2022-10-23T05:29:46.204Z,1017.69
2022-10-23T05:31:46.144Z,1017.67
2022-10-23T05:33:46.152Z,1017.67
2022-10-23T05:35:46.293Z,1017.64
2022-10-23T05:37:46.147Z,1017.62
2022-10-23T05:39:46.139Z,1017.57
2022-10-23T05:41:46.157Z,1017.55
2022-10-23T05:43:46.227Z,1017.55
2022-10-23T05:45:46.253Z,1017.56
2022-10-23T05:47:46.165Z,1017.59
2022-10-23T05:49:46.167Z,1017.61
2022-10-23T05:51:46.123Z,1017.61
2022-10-23T05:53:46.170Z,1017.58
2022-10-23T05:55:46.120Z,1017.59
2022-10-23T05:57:46.362Z,1017.57
2022-10-23T05:59:46.132Z,1017.49
2022-10-23T06:01:46.302Z,1017.49
2022-10-23T06:03:46.332Z,1017.51
2022-10-23T06:05:46.251Z,1017.49
2022-10-23T06:07:46.438Z,1017.45
2022-10-23T06:09:46.184Z,1017.45
2022-10-23T06:11:46.251Z,1017.45
2022-10-23T06:13:46.316Z,1017.39
2022-10-23T06:15:46.274Z,1017.45
2022-10-23T06:17:54.820Z,1017.48
2022-10-23T06:19:54.813Z,1017.47
2022-10-23T06:21:54.853Z,1017.50
2022-10-23T06:23:55.056Z,1017.50
2022-10-23T06:25:54.812Z,1017.47
2022-10-23T06:27:54.844Z,1017.50
2022-10-23T06:29:54.937Z,1017.50
2022-10-23T06:31:54.822Z,1017.51
2022-10-23T06:33:54.887Z,1017.51
2022-10-23T06:35:54.876Z,1017.48
2022-10-23T06:37:54.883Z,1017.44
2022-10-23T06:39:54.931Z,1017.40
2022-10-23T06:41:54.846Z,1017.40
2022-10-23T06:43:54.849Z,1017.40
2022-10-23T06:45:54.824Z,1017.40
2022-10-23T06:47:54.876Z,1017.39
2022-10-23T06:49:54.861Z,1017.39
2022-10-23T06:51:54.883Z,1017.39
2022-10-23T06:53:54.941Z,1017.39
2022-10-23T06:55:55.597Z,1017.37
2022-10-23T06:57:54.838Z,1017.35
2022-10-23T06:59:54.846Z,1017.33
2022-10-23T07:03:54.842Z,1017.31
2022-10-23T07:05:54.861Z,1017.34
2022-10-23T07:07:54.900Z,1017.32
2022-10-23T07:09:54.915Z,1017.37
2022-10-23T07:11:54.871Z,1017.37
2022-10-23T07:14:24.858Z,1017.33
2022-10-23T07:16:24.844Z,1017.30
2022-10-23T07:18:24.976Z,1017.24
2022-10-23T07:20:24.985Z,1017.24
2022-10-23T07:22:24.992Z,1017.23
2022-10-23T07:24:24.913Z,1017.20
2022-10-23T07:26:24.889Z,1017.18
2022-10-23T07:28:24.960Z,1017.26
2022-10-23T07:30:24.952Z,1017.26
2022-10-23T07:32:25.045Z,1017.26
2022-10-23T07:34:24.898Z,1017.34
2022-10-23T07:36:25.011Z,1017.33
2022-10-23T07:38:24.895Z,1017.39
2022-10-23T07:40:24.941Z,1017.39
2022-10-23T07:42:24.941Z,1017.41
2022-10-23T07:44:27.616Z,1017.43
2022-10-23T07:46:24.944Z,1017.40
2022-10-23T07:48:25.086Z,1017.38
2022-10-23T07:50:24.916Z,1017.38
2022-10-23T07:52:24.894Z,1017.43
2022-10-23T07:54:24.919Z,1017.42
2022-10-23T07:56:24.944Z,1017.39
2022-10-23T07:58:24.915Z,1017.39
2022-10-23T08:02:25.034Z,1017.29
2022-10-23T08:04:24.882Z,1017.25
2022-10-23T08:06:25.007Z,1017.28
2022-10-23T08:08:24.942Z,1017.28
2022-10-23T08:10:24.952Z,1017.29
2022-10-23T08:12:24.943Z,1017.29
2022-10-23T08:14:25.015Z,1017.33
2022-10-23T08:16:24.891Z,1017.34
2022-10-23T08:18:24.952Z,1017.34
2022-10-23T08:20:24.996Z,1017.42
2022-10-23T08:22:25.081Z,1017.48
2022-10-23T08:24:24.948Z,1017.35
2022-10-23T08:26:24.940Z,1017.35
2022-10-23T08:28:24.973Z,1017.33
2022-10-23T08:30:25.005Z,1017.31
2022-10-23T08:32:25.012Z,1017.27
2022-10-23T08:34:24.918Z,1017.21
2022-10-23T08:36:25.068Z,1017.21
2022-10-23T08:38:24.964Z,1017.19
2022-10-23T08:40:25.088Z,1017.17
2022-10-23T08:42:24.965Z,1017.16
2022-10-23T08:44:25.029Z,1017.16
2022-10-23T08:46:25.009Z,1017.16
2022-10-23T08:48:25.050Z,1017.12
2022-10-23T08:50:25.116Z,1017.16
2022-10-23T08:52:24.947Z,1017.16
2022-10-23T08:54:24.988Z,1017.16
2022-10-23T08:56:24.933Z,1017.08
2022-10-23T08:58:24.989Z,1017.15
2022-10-23T09:00:24.909Z,1017.07
2022-10-23T09:02:25.144Z,1017.00
2022-10-23T09:04:25.033Z,1017.00
2022-10-23T09:06:25.022Z,1016.94
2022-10-23T09:08:25.099Z,1016.89
2022-10-23T09:10:25.111Z,1016.89
2022-10-23T09:12:24.958Z,1016.86
2022-10-23T09:14:55.035Z,1016.84
2022-10-23T09:16:54.967Z,1016.84
2022-10-23T09:18:54.968Z,1016.84
2022-10-23T09:20:55.043Z,1016.88
2022-10-23T09:22:55.042Z,1016.84
2022-10-23T09:24:54.992Z,1016.89
2022-10-23T09:26:55.168Z,1016.89
2022-10-23T09:28:55.004Z,1016.88
2022-10-23T09:30:55.035Z,1016.90
2022-10-23T09:32:55.063Z,1016.90
2022-10-23T09:34:55.126Z,1016.97
2022-10-23T09:38:55.065Z,1016.97
2022-10-23T09:40:55.123Z,1016.93
2022-10-23T09:42:54.985Z,1016.93
2022-10-23T09:44:55.030Z,1016.82
2022-10-23T09:46:54.965Z,1016.82
2022-10-23T09:48:54.971Z,1016.83
2022-10-23T09:50:55.056Z,1016.81
2022-10-23T09:52:55.076Z,1016.78
2022-10-23T09:54:55.011Z,1016.78
2022-10-23T09:56:55.103Z,1016.79
2022-10-23T09:58:55.062Z,1016.79
2022-10-23T10:00:55.495Z,1016.72
2022-10-23T10:02:55.045Z,1016.67
2022-10-23T10:04:55.038Z,1016.67
2022-10-23T10:06:55.007Z,1016.66
2022-10-23T10:08:55.046Z,1016.69
2022-10-23T10:10:55.030Z,1016.67
2022-10-23T10:12:55.118Z,1016.67
2022-10-23T10:14:55.085Z,1016.67
2022-10-23T10:16:55.014Z,1016.57
2022-10-23T10:18:55.104Z,1016.53
2022-10-23T10:20:55.009Z,1016.55
2022-10-23T10:22:55.080Z,1016.55
2022-10-23T10:24:55.155Z,1016.46
2022-10-23T10:26:55.114Z,1016.41
2022-10-23T10:28:55.049Z,1016.38
2022-10-23T10:30:55.061Z,1016.37
2022-10-23T10:32:55.078Z,1016.37
2022-10-23T10:34:55.091Z,1016.40
2022-10-23T10:36:55.111Z,1016.40
2022-10-23T10:38:58.311Z,1016.40
2022-10-23T10:40:55.105Z,1016.40
2022-10-23T10:42:55.158Z,1016.40
2022-10-23T10:44:55.062Z,1016.37
2022-10-23T10:46:55.052Z,1016.37
2022-10-23T10:48:55.448Z,1016.37
2022-10-23T10:50:55.135Z,1016.29
2022-10-23T10:52:55.149Z,1016.29
2022-10-23T10:54:55.168Z,1016.29
2022-10-23T10:56:55.129Z,1016.20
2022-10-23T10:58:55.047Z,1016.16
2022-10-23T11:00:55.185Z,1016.16
2022-10-23T11:02:55.066Z,1016.09
2022-10-23T11:04:55.124Z,1016.10
2022-10-23T11:06:55.090Z,1016.13
2022-10-23T11:08:57.885Z,1016.09
2022-10-23T11:10:55.076Z,1016.09
2022-10-23T11:12:55.176Z,1015.92
2022-10-23T11:14:55.104Z,1015.79
2022-10-23T11:16:55.094Z,1015.68
2022-10-23T11:18:55.055Z,1015.73
2022-10-23T11:21:25.163Z,1015.73
2022-10-23T11:23:25.167Z,1015.78
2022-10-23T11:25:25.216Z,1015.81
2022-10-23T11:27:25.137Z,1015.83
2022-10-23T11:29:25.210Z,1015.83
2022-10-23T11:31:25.206Z,1015.84
2022-10-23T11:33:25.243Z,1015.90
2022-10-23T11:35:25.129Z,1015.90
2022-10-23T11:37:25.050Z,1015.86
2022-10-23T11:39:25.087Z,1015.86
2022-10-23T11:41:26.832Z,1015.86
2022-10-23T11:43:25.194Z,1015.75
2022-10-23T11:45:25.088Z,1015.76
2022-10-23T11:47:25.229Z,1015.66
2022-10-23T11:49:25.118Z,1015.66
2022-10-23T11:51:25.151Z,1015.69
2022-10-23T11:53:25.179Z,1015.63
2022-10-23T11:55:25.180Z,1015.67
2022-10-23T11:57:25.247Z,1015.67
2022-10-23T11:59:25.192Z,1015.56
2022-10-23T12:01:25.292Z,1015.51
2022-10-23T12:03:25.169Z,1015.56
2022-10-23T12:05:25.137Z,1015.46
2022-10-23T12:07:25.117Z,1015.46
2022-10-23T12:09:25.160Z,1015.57
2022-10-23T12:11:27.471Z,1015.49
2022-10-23T12:13:25.131Z,1015.47
2022-10-23T12:15:25.201Z,1015.47
2022-10-23T12:17:25.249Z,1015.47
2022-10-23T12:19:25.178Z,1015.37
2022-10-23T12:21:25.228Z,1015.36
2022-10-23T12:23:25.170Z,1015.32
2022-10-23T12:25:25.205Z,1015.32
2022-10-23T12:27:25.217Z,1015.28
2022-10-23T12:29:25.247Z,1015.24
2022-10-23T12:31:25.280Z,1015.21
2022-10-23T12:33:25.223Z,1015.19
2022-10-23T12:35:25.233Z,1015.19
2022-10-23T12:37:25.140Z,1015.19
2022-10-23T12:39:25.176Z,1015.18
2022-10-23T12:41:25.217Z,1015.10
2022-10-23T12:43:25.147Z,1015.10
2022-10-23T12:45:25.117Z,1015.10
2022-10-23T12:47:25.305Z,1015.09
2022-10-23T12:49:25.155Z,1015.04
2022-10-23T12:51:25.121Z,1015.07
2022-10-23T12:53:25.122Z,1015.01
2022-10-23T12:55:25.152Z,1015.01
2022-10-23T12:57:25.150Z,1015.01
2022-10-23T12:59:25.211Z,1014.91
2022-10-23T13:01:25.390Z,1014.93
2022-10-23T13:03:25.253Z,1014.93
2022-10-23T13:05:25.199Z,1014.87
2022-10-23T13:07:25.184Z,1014.83
2022-10-23T13:09:25.150Z,1014.81
2022-10-23T13:11:25.264Z,1014.75
2022-10-23T13:13:25.472Z,1014.75
2022-10-23T13:17:35.430Z,1014.78
2022-10-23T13:19:35.434Z,1014.72
2022-10-23T13:21:35.441Z,1014.71
2022-10-23T13:23:35.578Z,1014.71
2022-10-23T13:25:35.567Z,1014.71
2022-10-23T13:27:35.544Z,1014.64
2022-10-23T13:29:35.515Z,1014.61
2022-10-23T13:31:35.491Z,1014.61
2022-10-23T13:33:35.530Z,1014.61
2022-10-23T13:35:35.444Z,1014.55
2022-10-23T13:37:35.612Z,1014.55
2022-10-23T13:39:35.578Z,1014.50
2022-10-23T13:41:35.441Z,1014.50
2022-10-23T13:43:35.478Z,1014.45
2022-10-23T13:45:35.446Z,1014.42
2022-10-23T13:47:35.490Z,1014.47
2022-10-23T13:49:35.509Z,1014.54
2022-10-23T13:51:38.774Z,1014.54
2022-10-23T13:53:35.564Z,1014.53
2022-10-23T13:55:35.468Z,1014.52
2022-10-23T13:57:35.453Z,1014.52
2022-10-23T13:59:35.529Z,1014.52
2022-10-23T14:01:35.567Z,1014.56
2022-10-23T14:03:35.506Z,1014.52
2022-10-23T14:05:35.573Z,1014.59
2022-10-23T14:08:05.472Z,1014.61
2022-10-23T14:10:05.614Z,1014.59
2022-10-23T14:12:05.480Z,1014.60
2022-10-23T14:14:05.522Z,1014.60
2022-10-23T14:16:05.484Z,1014.51
2022-10-23T14:18:08.215Z,1014.51
2022-10-23T14:20:06.193Z,1014.54
2022-10-23T14:22:05.577Z,1014.54
2022-10-23T14:24:05.555Z,1014.54
2022-10-23T14:26:05.567Z,1014.56
2022-10-23T14:28:05.591Z,1014.58
2022-10-23T14:30:05.502Z,1014.58
2022-10-23T14:32:05.499Z,1014.58
2022-10-23T14:34:05.529Z,1014.54
2022-10-23T14:36:05.592Z,1014.58
2022-10-23T14:38:05.594Z,1014.63
2022-10-23T14:40:05.629Z,1014.65
2022-10-23T14:42:05.620Z,1014.65
2022-10-23T14:44:05.550Z,1014.66
2022-10-23T14:46:05.498Z,1014.56
2022-10-23T14:48:05.540Z,1014.59
2022-10-23T14:50:05.494Z,1014.61
2022-10-23T14:52:05.563Z,1014.61
2022-10-23T14:54:05.500Z,1014.53
2022-10-23T14:56:05.602Z,1014.50
2022-10-23T14:58:05.610Z,1014.50
2022-10-23T15:00:05.529Z,1014.50
2022-10-23T15:02:05.543Z,1014.32
2022-10-23T15:04:05.548Z,1014.34
2022-10-23T15:06:05.564Z,1014.28
2022-10-23T15:08:05.578Z,1014.30
2022-10-23T15:10:05.641Z,1014.30
2022-10-23T15:12:05.607Z,1014.37
2022-10-23T15:14:05.534Z,1014.33
2022-10-23T15:16:05.555Z,1014.38
2022-10-23T15:18:05.687Z,1014.32
2022-10-23T15:20:05.620Z,1014.32
2022-10-23T15:22:05.591Z,1014.32
2022-10-23T15:24:05.618Z,1014.37
2022-10-23T15:26:05.603Z,1014.43
2022-10-23T15:28:05.710Z,1014.43
2022-10-23T15:30:05.550Z,1014.39
2022-10-23T15:32:05.656Z,1014.32
2022-10-23T15:34:05.618Z,1014.19
2022-10-23T15:36:05.642Z,1014.07
2022-10-23T15:38:05.599Z,1014.07
2022-10-23T15:40:05.611Z,1014.07
2022-10-23T15:42:05.659Z,1014.10
2022-10-23T15:44:05.628Z,1014.14
2022-10-23T15:46:05.530Z,1014.06
2022-10-23T15:48:05.569Z,1014.06
2022-10-23T15:50:05.582Z,1014.06
2022-10-23T15:52:05.581Z,1014.03
2022-10-23T15:54:05.537Z,1014.03
2022-10-23T15:56:05.526Z,1013.97
2022-10-23T15:58:05.564Z,1013.97
2022-10-23T16:00:05.658Z,1013.91
2022-10-23T16:02:05.678Z,1013.91
2022-10-23T16:04:05.771Z,1013.99
2022-10-23T16:06:35.630Z,1013.99
2022-10-23T16:08:35.560Z,1013.95
2022-10-23T16:10:35.625Z,1013.96
2022-10-23T16:12:35.645Z,1013.99
2022-10-23T16:14:35.578Z,1013.89
2022-10-23T16:16:35.552Z,1013.89
2022-10-23T16:18:35.660Z,1013.84
2022-10-23T16:20:35.550Z,1013.84
2022-10-23T16:22:35.602Z,1013.80
2022-10-23T16:24:35.578Z,1013.74
2022-10-23T16:26:35.589Z,1013.74
2022-10-23T16:28:35.581Z,1013.75
2022-10-23T16:30:35.567Z,1013.70
2022-10-23T16:32:35.722Z,1013.71
2022-10-23T16:34:35.614Z,1013.71
2022-10-23T16:36:35.636Z,1013.70
2022-10-23T16:38:35.800Z,1013.70
2022-10-23T16:40:35.648Z,1013.83
2022-10-23T16:42:35.708Z,1013.88
2022-10-23T16:44:35.688Z,1013.88
2022-10-23T16:46:35.734Z,1013.91
2022-10-23T16:48:35.783Z,1013.91
2022-10-23T16:50:35.811Z,1014.01
2022-10-23T16:52:35.772Z,1014.01
2022-10-23T16:54:35.654Z,1014.01
2022-10-23T16:56:35.671Z,1014.19
2022-10-23T16:58:35.712Z,1014.20
2022-10-23T17:00:35.695Z,1014.20
2022-10-23T17:02:36.071Z,1014.20
2022-10-23T17:04:35.670Z,1014.18
2022-10-23T17:06:35.872Z,1014.14
2022-10-23T17:08:35.650Z,1014.20
2022-10-23T17:10:35.688Z,1014.17
2022-10-23T17:12:35.722Z,1014.17
2022-10-23T17:14:35.775Z,1014.18
2022-10-23T17:16:35.636Z,1014.23
2022-10-23T17:18:38.700Z,1014.21
2022-10-23T17:20:35.754Z,1014.18
2022-10-23T17:22:35.628Z,1014.18
2022-10-23T17:24:35.710Z,1014.14
2022-10-23T17:26:35.709Z,1014.16
2022-10-23T17:28:35.701Z,1014.17
2022-10-23T17:30:35.751Z,1014.17
2022-10-23T17:32:35.739Z,1014.09
2022-10-23T17:34:35.680Z,1014.15
2022-10-23T17:36:35.665Z,1014.18
2022-10-23T17:38:35.697Z,1014.15
2022-10-23T17:40:35.818Z,1014.15
2022-10-23T17:42:35.685Z,1014.15
2022-10-23T17:44:35.721Z,1014.05
2022-10-23T17:46:35.790Z,1013.80
2022-10-23T17:48:35.801Z,1013.71
2022-10-23T17:50:35.741Z,1013.71
2022-10-23T17:52:35.673Z,1013.63
2022-10-23T17:54:35.705Z,1013.48
2022-10-23T17:56:35.724Z,1013.55
2022-10-23T17:58:35.740Z,1013.51
2022-10-23T18:00:35.732Z,1013.51
2022-10-23T18:02:35.803Z,1013.53
2022-10-23T18:05:05.664Z,1013.55
2022-10-23T18:07:05.678Z,1013.49
2022-10-23T18:09:05.681Z,1013.58
2022-10-23T18:11:05.870Z,1013.62
2022-10-23T18:13:05.890Z,1013.62
2022-10-23T18:15:05.738Z,1013.69
2022-10-23T18:17:05.781Z,1013.79
2022-10-23T18:19:05.770Z,1013.94
2022-10-23T18:21:05.753Z,1013.94
2022-10-23T18:23:05.793Z,1013.94
2022-10-23T18:25:05.700Z,1014.43
2022-10-23T18:27:05.718Z,1014.66
2022-10-23T18:29:05.761Z,1014.62
2022-10-23T18:31:05.739Z,1014.62
2022-10-23T18:33:05.814Z,1014.88
2022-10-23T18:35:06.106Z,1014.79
2022-10-23T18:37:05.794Z,1014.43
2022-10-23T18:39:05.709Z,1014.49
2022-10-23T18:41:05.694Z,1014.49
2022-10-23T18:43:09.105Z,1014.63
2022-10-23T18:45:05.779Z,1014.52
2022-10-23T18:47:05.878Z,1014.29
2022-10-23T18:49:05.781Z,1014.45
2022-10-23T18:51:05.806Z,1014.45
2022-10-23T18:53:05.830Z,1014.67
2022-10-23T18:55:05.737Z,1014.24
2022-10-23T18:57:05.762Z,1014.52
2022-10-23T18:59:05.751Z,1014.48
2022-10-23T19:01:05.850Z,1014.48
2022-10-23T19:03:05.756Z,1014.48
2022-10-23T19:05:05.789Z,1014.58
2022-10-23T19:07:05.821Z,1014.56
2022-10-23T19:09:05.848Z,1014.56
2022-10-23T19:11:05.734Z,1014.74
2022-10-23T19:13:05.736Z,1014.85
2022-10-23T19:15:05.786Z,1014.78
2022-10-23T19:17:05.746Z,1014.91
2022-10-23T19:19:05.778Z,1014.91
2022-10-23T19:21:05.809Z,1014.92
2022-10-23T19:23:05.805Z,1014.91
2022-10-23T19:25:05.856Z,1014.82
2022-10-23T19:27:05.798Z,1014.74
2022-10-23T19:29:05.884Z,1014.74
2022-10-23T19:31:05.818Z,1014.68
2022-10-23T19:33:05.806Z,1014.61
2022-10-23T19:35:05.812Z,1014.63
2022-10-23T19:37:05.862Z,1014.63
2022-10-23T19:39:05.850Z,1014.73
2022-10-23T19:41:05.800Z,1014.75
2022-10-23T19:43:05.783Z,1014.75
2022-10-23T19:45:05.785Z,1014.93
2022-10-23T19:47:05.843Z,1014.93
2022-10-23T19:49:05.823Z,1014.86
2022-10-23T19:51:05.900Z,1014.91
2022-10-23T19:53:05.865Z,1015.09
2022-10-23T19:55:05.857Z,1015.10
2022-10-23T19:57:05.807Z,1015.10
2022-10-23T19:59:05.894Z,1015.18
2022-10-23T20:01:05.978Z,1015.29
2022-10-23T20:03:05.823Z,1015.44
2022-10-23T20:05:05.839Z,1015.44
2022-10-23T20:07:05.904Z,1015.42
2022-10-23T20:09:35.888Z,1015.34
2022-10-23T20:11:35.800Z,1015.21
2022-10-23T20:13:35.764Z,1015.21
2022-10-23T20:15:35.782Z,1015.21
2022-10-23T20:17:35.956Z,1015.26
2022-10-23T20:19:35.849Z,1015.39
2022-10-23T20:21:35.913Z,1015.47
2022-10-23T20:23:35.939Z,1015.47
2022-10-23T20:25:35.833Z,1015.47
2022-10-23T20:29:15.860Z,1015.43
2022-10-23T20:31:15.844Z,1015.54
2022-10-23T20:33:15.846Z,1015.54
2022-10-23T20:35:15.851Z,1015.59
2022-10-23T20:37:15.878Z,1015.59
2022-10-23T20:39:15.942Z,1015.50
2022-10-23T20:41:15.945Z,1015.49
2022-10-23T20:43:15.800Z,1015.49
2022-10-23T20:45:15.838Z,1015.47
2022-10-23T20:47:15.862Z,1015.61
2022-10-23T20:49:45.903Z,1015.66
2022-10-23T20:51:46.013Z,1015.55
2022-10-23T20:53:45.926Z,1015.55
2022-10-23T20:55:45.808Z,1015.56
2022-10-23T20:57:46.139Z,1015.46
2022-10-23T20:59:45.868Z,1015.61
2022-10-23T21:01:45.897Z,1015.67
2022-10-23T21:03:45.867Z,1015.67
2022-10-23T21:05:45.943Z,1015.67
2022-10-23T21:07:45.897Z,1015.79
2022-10-23T21:09:45.992Z,1015.65
2022-10-23T21:11:45.860Z,1015.65
2022-10-23T21:13:45.819Z,1015.70
2022-10-23T21:15:45.885Z,1015.60
2022-10-23T21:17:45.922Z,1015.69
2022-10-23T21:19:45.923Z,1015.76
2022-10-23T21:21:45.981Z,1015.76
2022-10-23T21:23:45.960Z,1015.68
2022-10-23T21:27:46.265Z,1015.73
2022-10-23T21:29:45.875Z,1015.77
2022-10-23T21:31:45.937Z,1015.77
2022-10-23T21:33:45.894Z,1015.82
2022-10-23T21:35:57.831Z,1015.65
2022-10-23T21:37:46.206Z,1015.53
2022-10-23T21:39:45.992Z,1015.53
2022-10-23T21:41:45.895Z,1015.63
2022-10-23T21:43:45.969Z,1015.72
2022-10-23T21:45:45.889Z,1015.72
2022-10-23T21:47:46.298Z,1015.98
2022-10-23T21:49:45.904Z,1015.98
2022-10-23T21:51:45.970Z,1015.95
2022-10-23T21:53:45.974Z,1015.94
2022-10-23T21:55:45.842Z,1015.98
2022-10-23T21:57:45.963Z,1016.02
2022-10-23T21:59:45.862Z,1016.02
2022-10-23T22:01:45.978Z,1016.03
2022-10-23T22:03:45.934Z,1016.06
2022-10-23T22:05:45.937Z,1016.05
2022-10-23T22:07:46.333Z,1016.05
2022-10-23T22:09:45.975Z,1015.96
2022-10-23T22:11:45.857Z,1016.04
2022-10-23T22:13:45.902Z,1016.01
2022-10-23T22:15:45.874Z,1015.98
2022-10-23T22:17:46.193Z,1015.98
2022-10-23T22:19:45.854Z,1015.91
2022-10-23T22:21:45.925Z,1015.75
2022-10-23T22:23:45.912Z,1015.78
2022-10-23T22:25:45.993Z,1015.78
2022-10-23T22:27:46.105Z,1015.78
2022-10-23T22:29:46.014Z,1015.81
2022-10-23T22:31:48.863Z,1015.76
2022-10-23T22:33:45.855Z,1015.69
2022-10-23T22:35:45.904Z,1015.69
2022-10-23T22:37:45.974Z,1015.61
2022-10-23T22:39:45.849Z,1015.58
2022-10-23T22:41:45.858Z,1015.66
2022-10-23T22:43:45.872Z,1015.65
2022-10-23T22:45:45.888Z,1015.65
2022-10-23T22:47:46.024Z,1015.43
2022-10-23T22:49:45.870Z,1015.41
2022-10-23T22:52:15.999Z,1015.30
2022-10-23T22:54:15.913Z,1015.35
2022-10-23T22:56:15.872Z,1015.29
2022-10-23T22:58:15.911Z,1015.31
2022-10-23T23:00:15.913Z,1015.31
2022-10-23T23:02:15.912Z,1015.39
2022-10-23T23:04:36.747Z,1015.33
2022-10-23T23:06:15.972Z,1015.33
2022-10-23T23:08:15.944Z,1015.33
2022-10-23T23:10:15.963Z,1015.42
2022-10-23T23:12:15.881Z,1015.44
2022-10-23T23:14:17.718Z,1015.50
2022-10-23T23:16:16.021Z,1015.53
2022-10-23T23:18:15.918Z,1015.53
2022-10-23T23:20:15.936Z,1015.49
2022-10-23T23:22:16.083Z,1015.47
2022-10-23T23:24:15.905Z,1015.51
2022-10-23T23:26:15.935Z,1015.50
2022-10-23T23:28:15.955Z,1015.50
2022-10-23T23:30:16.053Z,1015.42
2022-10-23T23:32:15.889Z,1015.37
2022-10-23T23:34:15.961Z,1015.35
2022-10-23T23:36:15.929Z,1015.35
2022-10-23T23:38:15.931Z,1015.38
2022-10-23T23:40:15.931Z,1015.38
2022-10-23T23:42:15.925Z,1015.32
2022-10-23T23:44:15.920Z,1015.35
2022-10-23T23:46:15.930Z,1015.35
2022-10-23T23:48:15.930Z,1015.35
2022-10-23T23:50:15.952Z,1015.35
2022-10-23T23:52:15.913Z,1015.36
2022-10-23T23:54:15.935Z,1015.34
2022-10-23T23:56:15.910Z,1015.34
2022-10-23T23:58:15.933Z,1015.37
